Edgar B Speer — WQZ9670 — position and weather

sailwx.info

Track history (hours):
 
Tides and Currents Weather Stations Pressure Air Temp Water Temp Dewpoint Dewpoint Depression Visibility Wind Speed Wind Dir Waves Ship Positions

Edgar B Speer

Owner: Great Lakes Fleet, Inc, DULUTH, MN. More information available from US FCC via Universal Licensing System and Coast Guard Vessel Documentation Center.

Last reported at 2015-Jul-04 09:28 UTC. Time now 2015-Jul-05 21:06 UTC.
Position N 44°48' W 086°28'.

Length 306 m; draft 8.6 m.

Type: Cargo ship. MMSI: 366971330.

Date/timePositionNaut miles runAvg speedWind from/ knotsBaromVisibWave heightAir tempDewpointWater temp
2015-Jul-04 09:28N 44°48' W 086°28'1212.6
2015-Jul-04 08:33N 44°59' W 086°23'1312.5
2015-Jul-04 07:33N 45°11' W 086°18'1312.5
2015-Jul-04 06:33N 45°23' W 086°13'1212.5
2015-Jul-04 05:33N 45°35' W 086°09'1111.5
2015-Jul-04 04:33N 45°44' W 085°58'1212.2
2015-Jul-04 03:33N 45°50' W 085°43'1111.5
2015-Jul-04 02:33N 45°54' W 085°27'1212.1
2015-Jul-04 01:33N 45°52' W 085°10'1212.2
2015-Jul-04 00:33N 45°50' W 084°53'1111.3
2015-Jul-03 23:33N 45°50' W 084°37'1212.2
2015-Jul-03 22:33N 45°53' W 084°20'1312.5
2015-Jul-03 21:33N 45°55' W 084°02'38 4.7
2015-Jul-03 13:33N 46°28' W 084°28'8 7.8
2015-Jul-03 12:33N 46°31' W 084°38'1212.5
2015-Jul-03 11:33N 46°41' W 084°49'1212.1
2015-Jul-03 10:33N 46°50' W 085°02'24512.2
2015-Jul-02 14:28N 47°11' W 090°60'1212.7
2015-Jul-02 13:33N 47°06' W 091°16'1412.5
2015-Jul-02 12:27N 47°01' W 091°35'4 1.7
2015-Jul-02 10:06N 47°01' W 091°40'0 0.0
2015-Jul-02 09:17N 47°01' W 091°40'0 0.0
2015-Jul-02 08:33N 47°01' W 091°40'0 0.0
2015-Jul-02 07:29N 47°01' W 091°40'0 0.0
2015-Jul-02 06:32N 47°01' W 091°40'0 0.0
2015-Jul-01 22:19N 47°01' W 091°40'0 0.0
2015-Jul-01 18:32N 47°01' W 091°40'0 0.0
2015-Jul-01 13:05N 47°01' W 091°40'0 0.0
2015-Jul-01 12:28N 47°01' W 091°40'1 0.9
2015-Jul-01 11:33N 47°00' W 091°41'7 7.4
2015-Jul-01 10:33N 47°02' W 091°30'5 4.9
2015-Jul-01 09:33N 47°03' W 091°23'7 7.1
2015-Jul-01 08:33N 47°04' W 091°13'7 7.4
2015-Jul-01 07:33N 47°06' W 091°02'29010.0
2015-Jun-30 02:29N 46°15' W 084°06'8 8.4
2015-Jun-30 01:33N 46°08' W 084°01'1010.4
2015-Jun-30 00:33N 45°59' W 083°53'1212.2
2015-Jun-29 23:33N 45°52' W 084°07'1313.1
2015-Jun-29 22:33N 45°51' W 084°25'1312.7
2015-Jun-29 21:33N 45°49' W 084°43'1313.3
2015-Jun-29 20:33N 45°50' W 085°02'10 9.6
2015-Jun-29 19:33N 45°43' W 085°12'1413.5
2015-Jun-29 18:33N 45°32' W 085°23'1413.6
2015-Jun-29 17:33N 45°21' W 085°35'1413.7
2015-Jun-29 16:33N 45°10' W 085°47'1413.5
2015-Jun-29 15:33N 44°60' W 085°59'1313.2
2015-Jun-29 14:33N 44°52' W 086°14'1513.8
2015-Jun-29 13:30N 44°39' W 086°23'1313.8
2015-Jun-29 12:33N 44°26' W 086°28'27 0.6
2015-Jun-27 17:19N 44°53' W 086°26'1013.0
2015-Jun-27 16:33N 45°03' W 086°22'1312.9
2015-Jun-27 15:33N 45°15' W 086°17'1312.8
2015-Jun-27 14:33N 45°27' W 086°12'1312.8
2015-Jun-27 13:33N 45°40' W 086°07'1212.4
2015-Jun-27 12:33N 45°47' W 085°52'1312.6
2015-Jun-27 11:33N 45°53' W 085°37'1212.3
2015-Jun-27 10:33N 45°53' W 085°19'1312.7
2015-Jun-27 09:33N 45°51' W 085°01'1312.7
2015-Jun-27 08:33N 45°49' W 084°43'1211.6
2015-Jun-27 07:34N 45°52' W 084°27'1312.8
2015-Jun-27 06:33N 45°53' W 084°09'9 9.2
2015-Jun-27 05:33N 45°56' W 083°56'9 8.7
2015-Jun-27 04:31N 46°04' W 084°00'9 9.0
2015-Jun-27 03:33N 46°11' W 084°07'7 6.5
2015-Jun-27 02:28N 46°17' W 084°13'6 6.9
2015-Jun-27 01:33N 46°23' W 084°14'27310.5
2015-Jun-25 23:33N 47°10' W 090°47'1312.7
2015-Jun-25 22:34N 47°07' W 091°05'1312.8
2015-Jun-25 21:33N 47°04' W 091°23'1212.1
2015-Jun-25 20:34N 47°00' W 091°40'1 0.6
2015-Jun-25 19:24N 47°01' W 091°40'0 0.0
2015-Jun-25 18:18N 47°01' W 091°40'0 0.0
2015-Jun-25 11:13N 47°01' W 091°40'0 0.0
2015-Jun-25 10:33N 47°01' W 091°40'0 0.0
2015-Jun-25 09:32N 47°01' W 091°40'0 0.1
2015-Jun-25 08:33N 47°01' W 091°40'1 1.1
2015-Jun-25 07:34N 46°60' W 091°39'27712.6
2015-Jun-24 09:30N 46°45' W 084°54'  
Track history (hours):
 
Tides and Currents Weather Stations Pressure Air Temp Water Temp Dewpoint Dewpoint Depression Visibility Wind Speed Wind Dir Waves Ship Positions

Edgar B Speer

Owner: Great Lakes Fleet, Inc, DULUTH, MN. More information available from US FCC via Universal Licensing System and Coast Guard Vessel Documentation Center.

Last reported at 2015-Jul-04 09:28 UTC. Time now 2015-Jul-05 21:06 UTC.
Position N 44°48' W 086°28'.

Length 306 m; draft 8.6 m.

Type: Cargo ship. MMSI: 366971330.

Date/timePositionNaut miles runAvg speedWind from/ knotsBaromVisibWave heightAir tempDewpointWater temp
2015-Jul-04 09:28N 44°48' W 086°28'1212.6
2015-Jul-04 08:33N 44°59' W 086°23'1312.5
2015-Jul-04 07:33N 45°11' W 086°18'1312.5
2015-Jul-04 06:33N 45°23' W 086°13'1212.5
2015-Jul-04 05:33N 45°35' W 086°09'1111.5
2015-Jul-04 04:33N 45°44' W 085°58'1212.2
2015-Jul-04 03:33N 45°50' W 085°43'1111.5
2015-Jul-04 02:33N 45°54' W 085°27'1212.1
2015-Jul-04 01:33N 45°52' W 085°10'1212.2
2015-Jul-04 00:33N 45°50' W 084°53'1111.3
2015-Jul-03 23:33N 45°50' W 084°37'1212.2
2015-Jul-03 22:33N 45°53' W 084°20'1312.5
2015-Jul-03 21:33N 45°55' W 084°02'38 4.7
2015-Jul-03 13:33N 46°28' W 084°28'8 7.8
2015-Jul-03 12:33N 46°31' W 084°38'1212.5
2015-Jul-03 11:33N 46°41' W 084°49'1212.1
2015-Jul-03 10:33N 46°50' W 085°02'24512.2
2015-Jul-02 14:28N 47°11' W 090°60'1212.7
2015-Jul-02 13:33N 47°06' W 091°16'1412.5
2015-Jul-02 12:27N 47°01' W 091°35'4 1.7
2015-Jul-02 10:06N 47°01' W 091°40'0 0.0
2015-Jul-02 09:17N 47°01' W 091°40'0 0.0
2015-Jul-02 08:33N 47°01' W 091°40'0 0.0
2015-Jul-02 07:29N 47°01' W 091°40'0 0.0
2015-Jul-02 06:32N 47°01' W 091°40'0 0.0
2015-Jul-01 22:19N 47°01' W 091°40'0 0.0
2015-Jul-01 18:32N 47°01' W 091°40'0 0.0
2015-Jul-01 13:05N 47°01' W 091°40'0 0.0
2015-Jul-01 12:28N 47°01' W 091°40'1 0.9
2015-Jul-01 11:33N 47°00' W 091°41'7 7.4
2015-Jul-01 10:33N 47°02' W 091°30'5 4.9
2015-Jul-01 09:33N 47°03' W 091°23'7 7.1
2015-Jul-01 08:33N 47°04' W 091°13'7 7.4
2015-Jul-01 07:33N 47°06' W 091°02'29010.0
2015-Jun-30 02:29N 46°15' W 084°06'8 8.4
2015-Jun-30 01:33N 46°08' W 084°01'1010.4
2015-Jun-30 00:33N 45°59' W 083°53'1212.2
2015-Jun-29 23:33N 45°52' W 084°07'1313.1
2015-Jun-29 22:33N 45°51' W 084°25'1312.7
2015-Jun-29 21:33N 45°49' W 084°43'1313.3
2015-Jun-29 20:33N 45°50' W 085°02'10 9.6
2015-Jun-29 19:33N 45°43' W 085°12'1413.5
2015-Jun-29 18:33N 45°32' W 085°23'1413.6
2015-Jun-29 17:33N 45°21' W 085°35'1413.7
2015-Jun-29 16:33N 45°10' W 085°47'1413.5
2015-Jun-29 15:33N 44°60' W 085°59'1313.2
2015-Jun-29 14:33N 44°52' W 086°14'1513.8
2015-Jun-29 13:30N 44°39' W 086°23'1313.8
2015-Jun-29 12:33N 44°26' W 086°28'27 0.6
2015-Jun-27 17:19N 44°53' W 086°26'1013.0
2015-Jun-27 16:33N 45°03' W 086°22'1312.9
2015-Jun-27 15:33N 45°15' W 086°17'1312.8
2015-Jun-27 14:33N 45°27' W 086°12'1312.8
2015-Jun-27 13:33N 45°40' W 086°07'1212.4
2015-Jun-27 12:33N 45°47' W 085°52'1312.6
2015-Jun-27 11:33N 45°53' W 085°37'1212.3
2015-Jun-27 10:33N 45°53' W 085°19'1312.7
2015-Jun-27 09:33N 45°51' W 085°01'1312.7
2015-Jun-27 08:33N 45°49' W 084°43'1211.6
2015-Jun-27 07:34N 45°52' W 084°27'1312.8
2015-Jun-27 06:33N 45°53' W 084°09'9 9.2
2015-Jun-27 05:33N 45°56' W 083°56'9 8.7
2015-Jun-27 04:31N 46°04' W 084°00'9 9.0
2015-Jun-27 03:33N 46°11' W 084°07'7 6.5
2015-Jun-27 02:28N 46°17' W 084°13'6 6.9
2015-Jun-27 01:33N 46°23' W 084°14'27310.5
2015-Jun-25 23:33N 47°10' W 090°47'1312.7
2015-Jun-25 22:34N 47°07' W 091°05'1312.8
2015-Jun-25 21:33N 47°04' W 091°23'1212.1
2015-Jun-25 20:34N 47°00' W 091°40'1 0.6
2015-Jun-25 19:24N 47°01' W 091°40'0 0.0
2015-Jun-25 18:18N 47°01' W 091°40'0 0.0
2015-Jun-25 11:13N 47°01' W 091°40'0 0.0
2015-Jun-25 10:33N 47°01' W 091°40'0 0.0
2015-Jun-25 09:32N 47°01' W 091°40'0 0.1
2015-Jun-25 08:33N 47°01' W 091°40'1 1.1
2015-Jun-25 07:34N 46°60' W 091°39'27712.6
2015-Jun-24 09:30N 46°45' W 084°54'  

Dump ship's entire track history